sensor_id;sensor_type;location;lat;lon;timestamp;pressure;altitude;pressure_sealevel;temperature;humidity
79372;BME280;68914;51.262;6.802;2023-04-24T00:00:33;99878.00;;;13.56;58.48
79372;BME280;68914;51.262;6.802;2023-04-24T00:01:33;99859.38;;;13.51;59.01
79372;BME280;68914;51.262;6.802;2023-04-24T00:02:34;99866.81;;;13.37;58.72
79372;BME280;68914;51.262;6.802;2023-04-24T00:03:38;99868.91;;;13.35;59.07
79372;BME280;68914;51.262;6.802;2023-04-24T00:04:39;99869.00;;;13.57;58.54
79372;BME280;68914;51.262;6.802;2023-04-24T00:05:44;99870.72;;;13.63;58.54
79372;BME280;68914;51.262;6.802;2023-04-24T00:06:46;99867.88;;;13.53;58.20
79372;BME280;68914;51.262;6.802;2023-04-24T00:07:49;99864.03;;;13.44;58.93
79372;BME280;68914;51.262;6.802;2023-04-24T00:08:53;99856.41;;;13.31;59.09
79372;BME280;68914;51.262;6.802;2023-04-24T00:09:53;99863.50;;;13.30;59.45
79372;BME280;68914;51.262;6.802;2023-04-24T00:10:54;99861.44;;;13.32;59.05
79372;BME280;68914;51.262;6.802;2023-04-24T00:11:55;99859.59;;;13.33;59.14
79372;BME280;68914;51.262;6.802;2023-04-24T00:12:56;99856.41;;;13.31;58.81
79372;BME280;68914;51.262;6.802;2023-04-24T00:13:57;99861.69;;;13.31;58.84
79372;BME280;68914;51.262;6.802;2023-04-24T00:14:57;99865.38;;;13.18;59.53
79372;BME280;68914;51.262;6.802;2023-04-24T00:15:58;99860.91;;;13.18;59.11
79372;BME280;68914;51.262;6.802;2023-04-24T00:16:59;99863.47;;;13.13;59.46
79372;BME280;68914;51.262;6.802;2023-04-24T00:17:59;99858.75;;;13.15;59.56
79372;BME280;68914;51.262;6.802;2023-04-24T00:19:01;99856.63;;;13.00;59.55
79372;BME280;68914;51.262;6.802;2023-04-24T00:20:02;99864.00;;;13.27;58.94
79372;BME280;68914;51.262;6.802;2023-04-24T00:21:04;99864.59;;;13.17;58.86
79372;BME280;68914;51.262;6.802;2023-04-24T00:22:05;99859.13;;;13.07;59.59
79372;BME280;68914;51.262;6.802;2023-04-24T00:23:06;99862.75;;;12.89;60.46
79372;BME280;68914;51.262;6.802;2023-04-24T00:24:07;99860.16;;;13.06;59.86
79372;BME280;68914;51.262;6.802;2023-04-24T00:25:09;99857.47;;;12.89;59.67
79372;BME280;68914;51.262;6.802;2023-04-24T00:26:10;99853.25;;;13.05;59.72
79372;BME280;68914;51.262;6.802;2023-04-24T00:27:10;99858.69;;;12.98;59.96
79372;BME280;68914;51.262;6.802;2023-04-24T00:28:11;99861.31;;;12.98;59.80
79372;BME280;68914;51.262;6.802;2023-04-24T00:29:12;99862.66;;;13.13;59.39
79372;BME280;68914;51.262;6.802;2023-04-24T00:30:12;99860.59;;;12.74;60.14
79372;BME280;68914;51.262;6.802;2023-04-24T00:31:13;99868.00;;;12.72;60.41
79372;BME280;68914;51.262;6.802;2023-04-24T00:32:14;99870.84;;;12.71;60.17
79372;BME280;68914;51.262;6.802;2023-04-24T00:33:15;99873.66;;;12.64;60.53
79372;BME280;68914;51.262;6.802;2023-04-24T00:34:16;99870.31;;;12.57;59.92
79372;BME280;68914;51.262;6.802;2023-04-24T00:35:16;99879.03;;;12.69;59.53
79372;BME280;68914;51.262;6.802;2023-04-24T00:36:17;99867.81;;;12.50;60.03
79372;BME280;68914;51.262;6.802;2023-04-24T00:37:19;99879.41;;;12.49;60.39
79372;BME280;68914;51.262;6.802;2023-04-24T00:38:20;99881.03;;;12.50;59.72
79372;BME280;68914;51.262;6.802;2023-04-24T00:39:22;99868.72;;;12.56;59.87
79372;BME280;68914;51.262;6.802;2023-04-24T00:40:23;99889.25;;;12.77;59.36
79372;BME280;68914;51.262;6.802;2023-04-24T00:41:27;99877.75;;;12.84;59.09
79372;BME280;68914;51.262;6.802;2023-04-24T00:42:27;99879.50;;;12.54;59.65
79372;BME280;68914;51.262;6.802;2023-04-24T00:43:28;99871.13;;;12.58;59.49
79372;BME280;68914;51.262;6.802;2023-04-24T00:44:29;99871.66;;;12.83;58.83
79372;BME280;68914;51.262;6.802;2023-04-24T00:45:30;99883.63;;;12.62;59.75
79372;BME280;68914;51.262;6.802;2023-04-24T00:46:31;99873.56;;;12.47;59.97
79372;BME280;68914;51.262;6.802;2023-04-24T00:47:33;99869.69;;;12.78;59.24
79372;BME280;68914;51.262;6.802;2023-04-24T00:48:34;99866.72;;;12.75;59.44
79372;BME280;68914;51.262;6.802;2023-04-24T00:49:35;99879.25;;;12.79;59.39
79372;BME280;68914;51.262;6.802;2023-04-24T00:50:36;99873.38;;;12.77;59.35
79372;BME280;68914;51.262;6.802;2023-04-24T00:51:36;99870.22;;;12.92;58.96
79372;BME280;68914;51.262;6.802;2023-04-24T00:52:37;99868.44;;;12.69;59.39
79372;BME280;68914;51.262;6.802;2023-04-24T00:53:41;99866.44;;;12.88;59.18
79372;BME280;68914;51.262;6.802;2023-04-24T00:54:41;99870.31;;;12.97;59.35
79372;BME280;68914;51.262;6.802;2023-04-24T00:55:42;99870.72;;;13.06;58.78
79372;BME280;68914;51.262;6.802;2023-04-24T00:56:43;99869.59;;;13.02;58.70
79372;BME280;68914;51.262;6.802;2023-04-24T00:57:45;99873.88;;;13.03;58.99
79372;BME280;68914;51.262;6.802;2023-04-24T00:58:46;99867.00;;;12.90;59.39
79372;BME280;68914;51.262;6.802;2023-04-24T00:59:47;99869.25;;;12.98;59.19
79372;BME280;68914;51.262;6.802;2023-04-24T01:00:48;99868.28;;;13.16;58.89
79372;BME280;68914;51.262;6.802;2023-04-24T01:01:51;99873.31;;;13.29;58.75
79372;BME280;68914;51.262;6.802;2023-04-24T01:02:52;99868.59;;;13.03;58.99
79372;BME280;68914;51.262;6.802;2023-04-24T01:03:53;99869.41;;;12.63;60.18
79372;BME280;68914;51.262;6.802;2023-04-24T01:04:54;99868.69;;;12.68;60.26
79372;BME280;68914;51.262;6.802;2023-04-24T01:05:55;99863.16;;;12.69;59.90
79372;BME280;68914;51.262;6.802;2023-04-24T01:06:56;99876.13;;;12.71;60.03
79372;BME280;68914;51.262;6.802;2023-04-24T01:07:58;99862.88;;;12.83;59.68
79372;BME280;68914;51.262;6.802;2023-04-24T01:08:59;99863.94;;;12.82;59.75
79372;BME280;68914;51.262;6.802;2023-04-24T01:10:04;99864.00;;;12.58;59.97
79372;BME280;68914;51.262;6.802;2023-04-24T01:11:06;99864.25;;;12.45;59.85
79372;BME280;68914;51.262;6.802;2023-04-24T01:12:07;99860.88;;;12.61;59.75
79372;BME280;68914;51.262;6.802;2023-04-24T01:13:08;99868.31;;;12.36;59.80
79372;BME280;68914;51.262;6.802;2023-04-24T01:14:09;99861.97;;;12.37;60.22
79372;BME280;68914;51.262;6.802;2023-04-24T01:15:10;99881.03;;;12.27;60.04
79372;BME280;68914;51.262;6.802;2023-04-24T01:16:10;99868.09;;;12.02;60.92
79372;BME280;68914;51.262;6.802;2023-04-24T01:17:11;99856.91;;;12.23;60.83
79372;BME280;68914;51.262;6.802;2023-04-24T01:18:12;99871.97;;;11.99;61.57
79372;BME280;68914;51.262;6.802;2023-04-24T01:19:14;99868.88;;;12.26;60.71
79372;BME280;68914;51.262;6.802;2023-04-24T01:20:17;99859.81;;;12.10;61.45
79372;BME280;68914;51.262;6.802;2023-04-24T01:21:17;99864.06;;;11.99;61.25
79372;BME280;68914;51.262;6.802;2023-04-24T01:22:19;99877.03;;;11.89;61.60
79372;BME280;68914;51.262;6.802;2023-04-24T01:23:21;99867.63;;;11.93;61.68
79372;BME280;68914;51.262;6.802;2023-04-24T01:24:21;99871.72;;;11.77;62.19
79372;BME280;68914;51.262;6.802;2023-04-24T01:25:23;99867.38;;;11.95;62.18
79372;BME280;68914;51.262;6.802;2023-04-24T01:26:25;99867.97;;;11.85;61.68
79372;BME280;68914;51.262;6.802;2023-04-24T01:27:26;99864.28;;;11.98;61.46
79372;BME280;68914;51.262;6.802;2023-04-24T01:28:27;99863.16;;;11.94;62.07
79372;BME280;68914;51.262;6.802;2023-04-24T01:29:28;99872.75;;;11.76;62.22
79372;BME280;68914;51.262;6.802;2023-04-24T01:30:29;99876.59;;;11.92;62.17
79372;BME280;68914;51.262;6.802;2023-04-24T01:31:31;99877.06;;;11.59;62.70
79372;BME280;68914;51.262;6.802;2023-04-24T01:32:33;99869.41;;;11.69;62.88
79372;BME280;68914;51.262;6.802;2023-04-24T01:33:35;99876.03;;;11.48;63.30
79372;BME280;68914;51.262;6.802;2023-04-24T01:34:35;99868.56;;;11.45;63.35
79372;BME280;68914;51.262;6.802;2023-04-24T01:35:37;99877.97;;;11.41;63.26
79372;BME280;68914;51.262;6.802;2023-04-24T01:36:38;99877.97;;;11.41;63.81
79372;BME280;68914;51.262;6.802;2023-04-24T01:37:39;99866.94;;;11.32;63.66
79372;BME280;68914;51.262;6.802;2023-04-24T01:38:40;99869.22;;;11.29;64.31
79372;BME280;68914;51.262;6.802;2023-04-24T01:39:40;99876.53;;;11.27;63.94
79372;BME280;68914;51.262;6.802;2023-04-24T01:40:41;99863.50;;;11.02;65.25
79372;BME280;68914;51.262;6.802;2023-04-24T01:41:42;99871.50;;;11.25;64.50
79372;BME280;68914;51.262;6.802;2023-04-24T01:42:43;99881.63;;;11.40;63.83
79372;BME280;68914;51.262;6.802;2023-04-24T01:43:43;99882.97;;;11.31;64.16
79372;BME280;68914;51.262;6.802;2023-04-24T01:44:44;99867.50;;;11.35;64.06
79372;BME280;68914;51.262;6.802;2023-04-24T01:45:45;99875.28;;;11.29;64.27
79372;BME280;68914;51.262;6.802;2023-04-24T01:46:46;99861.03;;;11.19;64.74
79372;BME280;68914;51.262;6.802;2023-04-24T01:47:47;99861.03;;;11.19;64.54
79372;BME280;68914;51.262;6.802;2023-04-24T01:48:49;99865.78;;;11.28;64.16
79372;BME280;68914;51.262;6.802;2023-04-24T01:49:53;99867.47;;;11.23;64.02
79372;BME280;68914;51.262;6.802;2023-04-24T01:50:54;99870.28;;;11.10;64.78
79372;BME280;68914;51.262;6.802;2023-04-24T01:51:55;99875.50;;;11.28;64.52
79372;BME280;68914;51.262;6.802;2023-04-24T01:52:56;99877.41;;;11.51;64.08
79372;BME280;68914;51.262;6.802;2023-04-24T01:53:56;99887.81;;;11.34;64.74
79372;BME280;68914;51.262;6.802;2023-04-24T01:54:59;99877.19;;;11.11;64.87
79372;BME280;68914;51.262;6.802;2023-04-24T01:56:00;99880.66;;;11.23;64.84
79372;BME280;68914;51.262;6.802;2023-04-24T01:57:01;99879.94;;;11.46;63.87
79372;BME280;68914;51.262;6.802;2023-04-24T01:58:03;99882.25;;;11.54;63.67
79372;BME280;68914;51.262;6.802;2023-04-24T01:59:03;99878.19;;;11.40;64.27
79372;BME280;68914;51.262;6.802;2023-04-24T02:00:05;99872.13;;;11.51;64.20
79372;BME280;68914;51.262;6.802;2023-04-24T02:01:18;99873.94;;;11.39;64.22
79372;BME280;68914;51.262;6.802;2023-04-24T02:02:19;99871.47;;;11.67;63.72
79372;BME280;68914;51.262;6.802;2023-04-24T02:03:21;99878.19;;;11.40;64.15
79372;BME280;68914;51.262;6.802;2023-04-24T02:04:23;99880.38;;;11.43;63.93
79372;BME280;68914;51.262;6.802;2023-04-24T02:05:23;99880.94;;;11.33;64.48
79372;BME280;68914;51.262;6.802;2023-04-24T02:06:24;99886.00;;;11.46;64.32
79372;BME280;68914;51.262;6.802;2023-04-24T02:07:27;99880.28;;;11.49;64.47
79372;BME280;68914;51.262;6.802;2023-04-24T02:08:27;99876.94;;;11.42;64.53
79372;BME280;68914;51.262;6.802;2023-04-24T02:09:28;99885.75;;;11.36;64.86
79372;BME280;68914;51.262;6.802;2023-04-24T02:10:28;99871.59;;;11.61;64.41
79372;BME280;68914;51.262;6.802;2023-04-24T02:11:29;99865.69;;;11.47;63.79
79372;BME280;68914;51.262;6.802;2023-04-24T02:12:31;99878.19;;;11.40;64.79
79372;BME280;68914;51.262;6.802;2023-04-24T02:13:32;99871.69;;;11.66;64.11
79372;BME280;68914;51.262;6.802;2023-04-24T02:14:33;99866.75;;;11.57;64.35
79372;BME280;68914;51.262;6.802;2023-04-24T02:15:34;99878.06;;;11.35;64.90
79372;BME280;68914;51.262;6.802;2023-04-24T02:16:38;99868.41;;;11.28;64.80
79372;BME280;68914;51.262;6.802;2023-04-24T02:17:39;99870.56;;;11.62;64.35
79372;BME280;68914;51.262;6.802;2023-04-24T02:18:39;99867.09;;;11.61;63.69
79372;BME280;68914;51.262;6.802;2023-04-24T02:19:40;99868.59;;;11.57;63.74
79372;BME280;68914;51.262;6.802;2023-04-24T02:20:41;99874.56;;;11.52;64.42
79372;BME280;68914;51.262;6.802;2023-04-24T02:21:41;99877.84;;;11.48;64.43
79372;BME280;68914;51.262;6.802;2023-04-24T02:22:43;99870.31;;;11.63;64.13
79372;BME280;68914;51.262;6.802;2023-04-24T02:23:43;99871.69;;;11.66;64.13
79372;BME280;68914;51.262;6.802;2023-04-24T02:24:47;99862.28;;;11.58;64.07
79372;BME280;68914;51.262;6.802;2023-04-24T02:25:49;99869.59;;;11.56;64.53
79372;BME280;68914;51.262;6.802;2023-04-24T02:26:51;99872.00;;;11.46;64.47
79372;BME280;68914;51.262;6.802;2023-04-24T02:27:52;99873.50;;;11.42;64.77
79372;BME280;68914;51.262;6.802;2023-04-24T02:28:52;99867.28;;;11.48;64.42
79372;BME280;68914;51.262;6.802;2023-04-24T02:29:54;99865.59;;;11.53;63.84
79372;BME280;68914;51.262;6.802;2023-04-24T02:30:55;99871.56;;;11.49;64.20
79372;BME280;68914;51.262;6.802;2023-04-24T02:31:56;99865.81;;;11.52;64.54
79372;BME280;68914;51.262;6.802;2023-04-24T02:32:57;99872.16;;;11.63;64.34
79372;BME280;68914;51.262;6.802;2023-04-24T02:33:57;99870.78;;;11.60;63.96
79372;BME280;68914;51.262;6.802;2023-04-24T02:34:58;99875.44;;;11.46;64.65
79372;BME280;68914;51.262;6.802;2023-04-24T02:35:59;99875.38;;;11.65;64.22
79372;BME280;68914;51.262;6.802;2023-04-24T02:37:00;99874.88;;;11.44;64.62
79372;BME280;68914;51.262;6.802;2023-04-24T02:38:01;99868.94;;;11.49;64.67
79372;BME280;68914;51.262;6.802;2023-04-24T02:39:01;99876.06;;;11.60;64.05
79372;BME280;68914;51.262;6.802;2023-04-24T02:40:02;99882.66;;;11.39;64.43
79372;BME280;68914;51.262;6.802;2023-04-24T02:41:03;99889.38;;;11.65;64.33
79372;BME280;68914;51.262;6.802;2023-04-24T02:42:06;99879.28;;;11.62;65.04
79372;BME280;68914;51.262;6.802;2023-04-24T02:43:09;99876.69;;;11.86;63.92
79372;BME280;68914;51.262;6.802;2023-04-24T02:44:10;99869.63;;;11.79;63.66
79372;BME280;68914;51.262;6.802;2023-04-24T02:45:10;99874.34;;;11.66;63.81
79372;BME280;68914;51.262;6.802;2023-04-24T02:46:11;99881.84;;;11.80;64.05
79372;BME280;68914;51.262;6.802;2023-04-24T02:47:12;99884.28;;;11.52;64.92
79372;BME280;68914;51.262;6.802;2023-04-24T02:48:12;99886.56;;;11.37;65.16
79372;BME280;68914;51.262;6.802;2023-04-24T02:49:13;99883.06;;;11.66;63.85
79372;BME280;68914;51.262;6.802;2023-04-24T02:50:13;99884.28;;;11.94;63.74
79372;BME280;68914;51.262;6.802;2023-04-24T02:51:14;99879.78;;;12.06;63.06
79372;BME280;68914;51.262;6.802;2023-04-24T02:52:15;99877.34;;;11.81;63.94
79372;BME280;68914;51.262;6.802;2023-04-24T02:53:16;99886.22;;;11.87;63.65
79372;BME280;68914;51.262;6.802;2023-04-24T02:54:16;99882.81;;;11.56;64.62
79372;BME280;68914;51.262;6.802;2023-04-24T02:55:17;99875.41;;;11.76;63.84
79372;BME280;68914;51.262;6.802;2023-04-24T02:56:18;99880.72;;;12.00;63.48
79372;BME280;68914;51.262;6.802;2023-04-24T02:57:18;99876.19;;;11.65;63.60
79372;BME280;68914;51.262;6.802;2023-04-24T02:58:19;99877.75;;;11.54;64.31
79372;BME280;68914;51.262;6.802;2023-04-24T02:59:20;99880.88;;;11.63;64.60
79372;BME280;68914;51.262;6.802;2023-04-24T03:00:21;99881.34;;;11.72;64.37
79372;BME280;68914;51.262;6.802;2023-04-24T03:01:22;99880.34;;;11.73;64.19
79372;BME280;68914;51.262;6.802;2023-04-24T03:02:22;99889.75;;;11.80;64.20
79372;BME280;68914;51.262;6.802;2023-04-24T03:03:23;99887.22;;;11.74;64.35
79372;BME280;68914;51.262;6.802;2023-04-24T03:04:24;99883.13;;;11.90;63.55
79372;BME280;68914;51.262;6.802;2023-04-24T03:05:25;99890.97;;;11.66;64.08
79372;BME280;68914;51.262;6.802;2023-04-24T03:06:25;99882.16;;;11.72;63.95
79372;BME280;68914;51.262;6.802;2023-04-24T03:07:27;99884.84;;;11.84;64.36
79372;BME280;68914;51.262;6.802;2023-04-24T03:08:27;99886.38;;;11.62;64.66
79372;BME280;68914;51.262;6.802;2023-04-24T03:09:28;99898.16;;;11.47;65.02
79372;BME280;68914;51.262;6.802;2023-04-24T03:10:29;99888.31;;;11.85;63.97
79372;BME280;68914;51.262;6.802;2023-04-24T03:11:29;99886.22;;;11.87;63.85
79372;BME280;68914;51.262;6.802;2023-04-24T03:12:30;99890.47;;;11.88;63.96
79372;BME280;68914;51.262;6.802;2023-04-24T03:13:30;99902.19;;;12.03;63.62
79372;BME280;68914;51.262;6.802;2023-04-24T03:14:31;99892.59;;;11.79;64.09
79372;BME280;68914;51.262;6.802;2023-04-24T03:15:32;99893.19;;;11.81;63.61
79372;BME280;68914;51.262;6.802;2023-04-24T03:16:32;99892.59;;;11.79;64.07
79372;BME280;68914;51.262;6.802;2023-04-24T03:17:33;99900.50;;;11.67;64.02
79372;BME280;68914;51.262;6.802;2023-04-24T03:18:34;99895.53;;;11.89;63.78
79372;BME280;68914;51.262;6.802;2023-04-24T03:19:34;99897.13;;;11.90;63.79
79372;BME280;68914;51.262;6.802;2023-04-24T03:20:40;99896.97;;;11.73;63.67
79372;BME280;68914;51.262;6.802;2023-04-24T03:21:41;99894.25;;;11.92;63.62
79372;BME280;68914;51.262;6.802;2023-04-24T03:22:42;99889.09;;;11.85;63.48
79372;BME280;68914;51.262;6.802;2023-04-24T03:23:43;99905.47;;;11.75;63.43
79372;BME280;68914;51.262;6.802;2023-04-24T03:24:44;99895.72;;;11.76;63.82
79372;BME280;68914;51.262;6.802;2023-04-24T03:25:45;99893.69;;;11.48;64.21
79372;BME280;68914;51.262;6.802;2023-04-24T03:26:50;99896.28;;;11.36;65.07
79372;BME280;68914;51.262;6.802;2023-04-24T03:28:16;99897.31;;;11.65;64.28
79372;BME280;68914;51.262;6.802;2023-04-24T03:29:22;99897.69;;;11.80;63.53
79372;BME280;68914;51.262;6.802;2023-04-24T03:30:23;99908.31;;;11.62;63.53
79372;BME280;68914;51.262;6.802;2023-04-24T03:31:29;99899.66;;;11.85;63.66
79372;BME280;68914;51.262;6.802;2023-04-24T03:32:30;99898.72;;;11.91;63.06
79372;BME280;68914;51.262;6.802;2023-04-24T03:33:32;99906.41;;;11.81;63.67
79372;BME280;68914;51.262;6.802;2023-04-24T03:34:35;99904.22;;;11.78;63.92
79372;BME280;68914;51.262;6.802;2023-04-24T03:35:35;99907.75;;;11.72;63.29
79372;BME280;68914;51.262;6.802;2023-04-24T03:36:40;99905.88;;;11.49;64.12
79372;BME280;68914;51.262;6.802;2023-04-24T03:37:42;99908.94;;;11.88;63.26
79372;BME280;68914;51.262;6.802;2023-04-24T03:39:09;99898.13;;;11.77;63.38
79372;BME280;68914;51.262;6.802;2023-04-24T03:40:11;99909.50;;;11.78;63.32
79372;BME280;68914;51.262;6.802;2023-04-24T03:41:12;99906.03;;;11.66;63.61
79372;BME280;68914;51.262;6.802;2023-04-24T03:42:29;99906.00;;;11.54;64.31
79372;BME280;68914;51.262;6.802;2023-04-24T03:43:30;99907.53;;;11.73;63.68
79372;BME280;68914;51.262;6.802;2023-04-24T03:44:35;99906.63;;;11.79;62.92
79372;BME280;68914;51.262;6.802;2023-04-24T03:45:35;99909.56;;;11.60;63.48
79372;BME280;68914;51.262;6.802;2023-04-24T03:46:36;99906.78;;;11.85;63.02
79372;BME280;68914;51.262;6.802;2023-04-24T03:47:37;99905.59;;;11.80;63.45
79372;BME280;68914;51.262;6.802;2023-04-24T03:48:39;99907.09;;;11.76;62.80
79372;BME280;68914;51.262;6.802;2023-04-24T03:49:41;99902.38;;;11.78;63.13
79372;BME280;68914;51.262;6.802;2023-04-24T03:50:43;99900.28;;;11.57;63.76
79372;BME280;68914;51.262;6.802;2023-04-24T03:51:46;99904.09;;;11.73;63.09
79372;BME280;68914;51.262;6.802;2023-04-24T03:52:56;99899.31;;;11.93;62.85
79372;BME280;68914;51.262;6.802;2023-04-24T03:54:08;99897.94;;;11.91;62.19
79372;BME280;68914;51.262;6.802;2023-04-24T03:55:11;99911.03;;;11.86;63.27
79372;BME280;68914;51.262;6.802;2023-04-24T03:56:18;99905.50;;;11.87;63.01
79372;BME280;68914;51.262;6.802;2023-04-24T03:57:18;99897.81;;;11.86;63.07
79372;BME280;68914;51.262;6.802;2023-04-24T03:58:32;99902.06;;;11.87;63.04
79372;BME280;68914;51.262;6.802;2023-04-24T03:59:34;99906.53;;;11.86;63.29
79372;BME280;68914;51.262;6.802;2023-04-24T04:00:46;99906.91;;;12.01;62.46
79372;BME280;68914;51.262;6.802;2023-04-24T04:02:13;99901.88;;;12.12;62.41
79372;BME280;68914;51.262;6.802;2023-04-24T04:03:14;99899.34;;;12.05;62.59
79372;BME280;68914;51.262;6.802;2023-04-24T04:04:15;99900.38;;;12.16;61.99
79372;BME280;68914;51.262;6.802;2023-04-24T04:05:17;99905.53;;;12.22;62.26
79372;BME280;68914;51.262;6.802;2023-04-24T04:06:17;99902.88;;;11.99;61.93
79372;BME280;68914;51.262;6.802;2023-04-24T04:07:20;99907.63;;;12.09;62.37
79372;BME280;68914;51.262;6.802;2023-04-24T04:08:20;99907.25;;;11.93;62.59
79372;BME280;68914;51.262;6.802;2023-04-24T04:09:22;99904.81;;;11.80;62.99
79372;BME280;68914;51.262;6.802;2023-04-24T04:10:23;99902.31;;;11.97;62.52
79372;BME280;68914;51.262;6.802;2023-04-24T04:11:23;99917.59;;;12.06;62.02
79372;BME280;68914;51.262;6.802;2023-04-24T04:12:24;99897.59;;;11.99;62.65
79372;BME280;68914;51.262;6.802;2023-04-24T04:13:25;99912.88;;;11.85;62.37
79372;BME280;68914;51.262;6.802;2023-04-24T04:14:27;99907.94;;;11.89;63.06
79372;BME280;68914;51.262;6.802;2023-04-24T04:15:27;99907.81;;;12.07;62.61
79372;BME280;68914;51.262;6.802;2023-04-24T04:16:28;99914.16;;;12.06;62.37
79372;BME280;68914;51.262;6.802;2023-04-24T04:17:35;99906.16;;;11.82;63.14
79372;BME280;68914;51.262;6.802;2023-04-24T04:18:37;99922.66;;;11.96;62.50
79372;BME280;68914;51.262;6.802;2023-04-24T04:19:39;99906.91;;;11.90;62.77
79372;BME280;68914;51.262;6.802;2023-04-24T04:20:41;99921.44;;;11.80;63.35
79372;BME280;68914;51.262;6.802;2023-04-24T04:21:43;99922.94;;;11.76;63.04
79372;BME280;68914;51.262;6.802;2023-04-24T04:22:58;99919.22;;;11.66;63.63
79372;BME280;68914;51.262;6.802;2023-04-24T04:24:11;99925.31;;;11.66;63.24
79372;BME280;68914;51.262;6.802;2023-04-24T04:25:16;99936.47;;;11.68;63.75
79372;BME280;68914;51.262;6.802;2023-04-24T04:26:19;99931.38;;;11.55;63.51
79372;BME280;68914;51.262;6.802;2023-04-24T04:27:32;99925.41;;;11.60;64.13
79372;BME280;68914;51.262;6.802;2023-04-24T04:28:37;99920.69;;;11.50;63.98
79372;BME280;68914;51.262;6.802;2023-04-24T04:29:39;99921.59;;;11.86;63.50
79372;BME280;68914;51.262;6.802;2023-04-24T04:30:42;99918.03;;;12.03;62.86
79372;BME280;68914;51.262;6.802;2023-04-24T04:31:43;99917.41;;;11.66;63.34
79372;BME280;68914;51.262;6.802;2023-04-24T04:32:46;99920.13;;;11.60;64.20
79372;BME280;68914;51.262;6.802;2023-04-24T04:33:47;99929.44;;;11.62;63.20
79372;BME280;68914;51.262;6.802;2023-04-24T04:34:48;99919.44;;;12.06;62.67
79372;BME280;68914;51.262;6.802;2023-04-24T04:35:51;99927.97;;;11.66;63.25
79372;BME280;68914;51.262;6.802;2023-04-24T04:36:57;99930.22;;;11.51;64.14
79372;BME280;68914;51.262;6.802;2023-04-24T04:38:16;99923.88;;;11.52;63.93
79372;BME280;68914;51.262;6.802;2023-04-24T04:39:33;99935.03;;;11.54;63.72
79372;BME280;68914;51.262;6.802;2023-04-24T04:40:36;99928.16;;;11.53;63.71
79372;BME280;68914;51.262;6.802;2023-04-24T04:41:39;99934.13;;;11.48;64.58
79372;BME280;68914;51.262;6.802;2023-04-24T04:42:41;99928.72;;;11.55;64.24
79372;BME280;68914;51.262;6.802;2023-04-24T04:43:43;99931.38;;;11.25;63.89
79372;BME280;68914;51.262;6.802;2023-04-24T04:44:44;99944.84;;;11.35;64.19
79372;BME280;68914;51.262;6.802;2023-04-24T04:45:50;99929.44;;;11.62;64.10
79372;BME280;68914;51.262;6.802;2023-04-24T04:47:01;99938.00;;;11.46;63.66
79372;BME280;68914;51.262;6.802;2023-04-24T04:48:07;99931.97;;;11.57;63.81
79372;BME280;68914;51.262;6.802;2023-04-24T04:49:10;99942.06;;;11.72;63.08
79372;BME280;68914;51.262;6.802;2023-04-24T04:50:11;99940.53;;;11.41;63.89
79372;BME280;68914;51.262;6.802;2023-04-24T04:51:12;99936.28;;;11.51;64.47
79372;BME280;68914;51.262;6.802;2023-04-24T04:52:13;99944.03;;;11.65;63.76
79372;BME280;68914;51.262;6.802;2023-04-24T04:53:14;99948.28;;;11.66;63.45
79372;BME280;68914;51.262;6.802;2023-04-24T04:54:16;99943.00;;;11.36;65.17
79372;BME280;68914;51.262;6.802;2023-04-24T04:55:17;99942.72;;;11.55;64.08
79372;BME280;68914;51.262;6.802;2023-04-24T04:56:40;99935.56;;;11.32;65.52
79372;BME280;68914;51.262;6.802;2023-04-24T04:57:41;99943.72;;;11.13;66.34
79372;BME280;68914;51.262;6.802;2023-04-24T04:58:41;99943.34;;;11.39;66.09
79372;BME280;68914;51.262;6.802;2023-04-24T04:59:45;99953.75;;;11.52;65.82
79372;BME280;68914;51.262;6.802;2023-04-24T05:00:54;99944.28;;;11.33;67.16
79372;BME280;68914;51.262;6.802;2023-04-24T05:02:08;99954.34;;;11.66;66.29
79372;BME280;68914;51.262;6.802;2023-04-24T05:03:10;99940.94;;;11.07;67.80
79372;BME280;68914;51.262;6.802;2023-04-24T05:04:11;99949.28;;;11.04;69.36
79372;BME280;68914;51.262;6.802;2023-04-24T05:05:12;99947.78;;;10.97;69.08
79372;BME280;68914;51.262;6.802;2023-04-24T05:06:13;99951.22;;;10.97;69.22
79372;BME280;68914;51.262;6.802;2023-04-24T05:07:14;99951.78;;;11.18;69.02
79372;BME280;68914;51.262;6.802;2023-04-24T05:08:20;99951.91;;;11.04;70.34
79372;BME280;68914;51.262;6.802;2023-04-24T05:09:20;99939.06;;;11.26;69.03
79372;BME280;68914;51.262;6.802;2023-04-24T05:10:28;99954.03;;;11.32;69.18
79372;BME280;68914;51.262;6.802;2023-04-24T05:11:30;99952.16;;;11.03;69.46
79372;BME280;68914;51.262;6.802;2023-04-24T05:12:31;99944.09;;;10.98;69.72
79372;BME280;68914;51.262;6.802;2023-04-24T05:13:32;99946.00;;;11.09;69.27
79372;BME280;68914;51.262;6.802;2023-04-24T05:14:34;99944.22;;;11.03;68.64
79372;BME280;68914;51.262;6.802;2023-04-24T05:15:35;99946.75;;;10.98;69.23
79372;BME280;68914;51.262;6.802;2023-04-24T05:16:36;99946.94;;;11.15;68.95
79372;BME280;68914;51.262;6.802;2023-04-24T05:17:38;99948.72;;;11.02;69.05
79372;BME280;68914;51.262;6.802;2023-04-24T05:18:41;99948.28;;;11.05;69.20
79372;BME280;68914;51.262;6.802;2023-04-24T05:19:45;99946.50;;;11.18;68.69
79372;BME280;68914;51.262;6.802;2023-04-24T05:20:47;99937.72;;;11.05;68.13
79372;BME280;68914;51.262;6.802;2023-04-24T05:21:48;99947.97;;;11.14;68.15
79372;BME280;68914;51.262;6.802;2023-04-24T05:22:49;99957.19;;;11.23;68.09
79372;BME280;68914;51.262;6.802;2023-04-24T05:23:50;99943.00;;;11.05;68.19
79372;BME280;68914;51.262;6.802;2023-04-24T05:24:59;99950.16;;;11.17;67.50
79372;BME280;68914;51.262;6.802;2023-04-24T05:26:16;99946.94;;;11.15;68.06
79372;BME280;68914;51.262;6.802;2023-04-24T05:27:18;99949.75;;;11.01;66.93
79372;BME280;68914;51.262;6.802;2023-04-24T05:28:19;99965.25;;;10.73;69.43
79372;BME280;68914;51.262;6.802;2023-04-24T05:29:27;99952.00;;;10.79;69.44
79372;BME280;68914;51.262;6.802;2023-04-24T05:30:28;99969.88;;;10.59;70.42